Terminal Aerodrome Forecast
Issued by NWS

Home | Current Version | Previous Version | Text Only | Print | Product List | Glossary Off
Versions: 1 2 3 4 5 6 7 8 9 10 11 12 13 14 15 16 17 18 19 20 21

000
FTUS43 KABR 251100
TAFPIR
TAF
KPIR 251129Z 2512/2612 24006KT P6SM OVC250
     FM251500 18008KT P6SM OVC100
      TEMPO 2521/2524 -RA OVC040
     FM260000 31016G25KT P6SM OVC040
     FM260400 33025G33KT P6SM OVC015=

USA.gov is the U.S. government's official web portal to all federal, state and local government web resources and services.